createdAt,value
2023-02-11T00:00:20.660Z,58.41
2023-02-11T00:02:48.073Z,58.24
2023-02-11T00:05:15.377Z,58.16
2023-02-11T00:07:41.961Z,58.27
2023-02-11T00:10:09.029Z,58.97
2023-02-11T00:12:36.590Z,58.61
2023-02-11T00:15:03.756Z,58.90
2023-02-11T00:17:30.112Z,58.89
2023-02-11T00:19:56.510Z,58.72
2023-02-11T00:22:22.927Z,58.68
2023-02-11T00:24:49.360Z,58.95
2023-02-11T00:27:16.004Z,58.80
2023-02-11T00:29:42.350Z,59.37
2023-02-11T00:32:10.572Z,59.82
2023-02-11T00:34:37.982Z,60.24
2023-02-11T00:37:05.066Z,60.54
2023-02-11T00:39:31.523Z,60.38
2023-02-11T00:41:58.490Z,60.01
2023-02-11T00:44:25.086Z,60.50
2023-02-11T00:46:51.433Z,60.13
2023-02-11T00:49:17.972Z,60.14
2023-02-11T00:51:44.363Z,60.34
2023-02-11T00:54:10.794Z,60.37
2023-02-11T00:56:37.224Z,60.10
2023-02-11T00:59:03.776Z,60.13
2023-02-11T01:01:30.239Z,59.91
2023-02-11T01:03:56.598Z,60.33
2023-02-11T01:06:23.235Z,60.56
2023-02-11T01:08:49.604Z,60.12
2023-02-11T01:11:19.475Z,60.54
2023-02-11T01:13:47.126Z,61.10
2023-02-11T01:16:13.596Z,61.21
2023-02-11T01:18:41.864Z,61.12
2023-02-11T01:21:08.323Z,60.58
2023-02-11T01:23:34.670Z,60.94
2023-02-11T01:26:01.381Z,60.74
2023-02-11T01:28:29.159Z,61.59
2023-02-11T01:30:55.985Z,62.26
2023-02-11T01:33:23.085Z,61.71
2023-02-11T01:35:50.090Z,61.58
2023-02-11T01:38:19.181Z,61.46
2023-02-11T01:40:54.295Z,62.18
2023-02-11T01:43:21.355Z,61.53
2023-02-11T01:45:47.664Z,62.28
2023-02-11T01:48:25.028Z,61.79
2023-02-11T01:50:56.504Z,61.90
2023-02-11T01:53:41.592Z,61.27
2023-02-11T01:56:27.549Z,61.75
2023-02-11T01:58:59.084Z,61.13
2023-02-11T02:01:27.567Z,61.13
2023-02-11T02:03:59.674Z,61.58
2023-02-11T02:06:33.939Z,60.99
2023-02-11T02:09:06.788Z,61.46
2023-02-11T02:11:33.261Z,61.43
2023-02-11T02:13:59.729Z,61.93
2023-02-11T02:16:37.074Z,61.13
2023-02-11T02:19:40.411Z,61.46
2023-02-11T02:22:28.376Z,61.48
2023-02-11T02:25:21.344Z,61.45
2023-02-11T02:28:36.748Z,61.82
2023-02-11T02:31:47.065Z,61.53
2023-02-11T02:34:34.206Z,61.57
2023-02-11T02:37:17.997Z,61.68
2023-02-11T02:39:46.813Z,62.01
2023-02-11T02:42:14.043Z,62.98
2023-02-11T02:44:40.464Z,62.70
2023-02-11T02:47:06.949Z,62.97
2023-02-11T02:49:33.292Z,62.33
2023-02-11T02:52:34.060Z,62.79
2023-02-11T02:55:30.956Z,62.31
2023-02-11T02:58:21.588Z,62.21
2023-02-11T03:01:08.070Z,62.09
2023-02-11T03:03:56.049Z,62.52
2023-02-11T03:06:34.578Z,62.81
2023-02-11T03:09:17.885Z,62.65
2023-02-11T03:11:45.150Z,62.54
2023-02-11T03:14:15.279Z,62.55
2023-02-11T03:16:43.437Z,62.50
2023-02-11T03:19:15.264Z,62.36
2023-02-11T03:21:44.059Z,62.26
2023-02-11T03:24:20.478Z,62.00
2023-02-11T03:26:51.349Z,62.00
2023-02-11T03:29:33.282Z,62.26
2023-02-11T03:32:32.808Z,61.96
2023-02-11T03:35:07.531Z,62.73
2023-02-11T03:38:05.267Z,62.41
2023-02-11T03:40:36.499Z,62.51
2023-02-11T03:43:09.530Z,62.59
2023-02-11T03:45:38.340Z,62.51
2023-02-11T03:48:19.970Z,62.01
2023-02-11T03:50:48.301Z,62.14
2023-02-11T03:53:15.781Z,62.36
2023-02-11T03:55:43.945Z,62.02
2023-02-11T03:58:10.779Z,62.34
2023-02-11T04:00:41.114Z,61.77
2023-02-11T04:03:09.410Z,62.30
2023-02-11T04:05:36.143Z,62.04
2023-02-11T04:08:02.769Z,62.63
2023-02-11T04:10:29.173Z,62.02
2023-02-11T04:12:55.584Z,62.57
2023-02-11T04:15:22.255Z,62.02
2023-02-11T04:17:48.649Z,62.24
2023-02-11T04:20:15.041Z,62.71
2023-02-11T04:22:41.480Z,62.30
2023-02-11T04:25:09.490Z,62.38
2023-02-11T04:27:36.237Z,62.84
2023-02-11T04:30:05.302Z,62.32
2023-02-11T04:32:31.813Z,62.52
2023-02-11T04:34:58.156Z,62.68
2023-02-11T04:37:24.514Z,62.49
2023-02-11T04:39:50.852Z,62.49
2023-02-11T04:42:17.213Z,62.20
2023-02-11T04:44:43.548Z,62.23
2023-02-11T04:47:10.162Z,62.16
2023-02-11T04:49:36.578Z,62.22
2023-02-11T04:52:02.926Z,62.61
2023-02-11T04:54:29.278Z,62.64
2023-02-11T04:56:55.681Z,62.36
2023-02-11T04:59:22.010Z,62.42
2023-02-11T05:01:49.410Z,62.85
2023-02-11T05:04:16.558Z,62.30
2023-02-11T05:06:42.957Z,62.25
2023-02-11T05:09:11.797Z,62.68
2023-02-11T05:11:39.385Z,62.14
2023-02-11T05:14:06.545Z,62.76
2023-02-11T05:16:34.431Z,61.86
2023-02-11T05:19:00.941Z,62.50
2023-02-11T05:21:27.348Z,62.46
2023-02-11T05:23:53.672Z,62.67
2023-02-11T05:26:20.142Z,62.56
2023-02-11T05:28:46.610Z,63.13
2023-02-11T05:31:14.513Z,63.05
2023-02-11T05:33:41.323Z,63.27
2023-02-11T05:36:10.378Z,63.91
2023-02-11T05:38:37.989Z,63.61
2023-02-11T05:41:05.907Z,63.48
2023-02-11T05:43:32.501Z,63.71
2023-02-11T05:45:58.880Z,63.95
2023-02-11T05:48:25.248Z,64.15
2023-02-11T05:50:51.618Z,63.67
2023-02-11T05:53:17.999Z,64.22
2023-02-11T05:55:44.700Z,64.09
2023-02-11T05:58:11.192Z,63.77
2023-02-11T06:00:37.860Z,64.10
2023-02-11T06:03:04.523Z,64.24
2023-02-11T06:05:31.181Z,63.84
2023-02-11T06:07:57.613Z,64.23
2023-02-11T06:10:24.077Z,63.90
2023-02-11T06:12:50.470Z,64.12
2023-02-11T06:15:17.029Z,64.99
2023-02-11T06:17:43.357Z,64.75
2023-02-11T06:20:10.882Z,65.12
2023-02-11T06:22:37.506Z,64.35
2023-02-11T06:25:04.247Z,64.59
2023-02-11T06:27:30.596Z,64.95
2023-02-11T06:29:56.970Z,64.76
2023-02-11T06:32:43.261Z,64.78
2023-02-11T06:35:11.916Z,65.23
2023-02-11T06:37:39.397Z,64.76
2023-02-11T06:40:06.252Z,64.68
2023-02-11T06:42:32.632Z,65.01
2023-02-11T06:44:58.963Z,64.40
2023-02-11T06:47:25.375Z,64.13
2023-02-11T06:49:51.742Z,64.55
2023-02-11T06:52:18.076Z,64.26
2023-02-11T06:54:44.502Z,64.62
2023-02-11T06:57:10.872Z,64.19
2023-02-11T06:59:37.293Z,64.07
2023-02-11T07:02:03.721Z,64.73
2023-02-11T07:04:30.094Z,65.08
2023-02-11T07:06:56.462Z,65.00
2023-02-11T07:09:23.165Z,64.69
2023-02-11T07:11:49.528Z,64.15
2023-02-11T07:14:15.866Z,64.43
2023-02-11T07:16:42.288Z,65.39
2023-02-11T07:19:08.626Z,66.78
2023-02-11T07:21:35.064Z,65.98
2023-02-11T07:24:02.015Z,65.48
2023-02-11T07:26:29.244Z,65.34
2023-02-11T07:28:55.609Z,64.97
2023-02-11T07:31:25.168Z,64.27
2023-02-11T07:33:53.598Z,64.24
2023-02-11T07:36:21.563Z,68.24
2023-02-11T07:38:48.722Z,68.05
2023-02-11T07:41:18.049Z,68.71
2023-02-11T07:43:45.241Z,69.29
2023-02-11T07:46:32.034Z,68.79
2023-02-11T07:48:58.457Z,67.52
2023-02-11T07:51:27.625Z,66.87
2023-02-11T07:53:55.504Z,66.68
2023-02-11T07:56:22.905Z,67.99
2023-02-11T07:58:49.855Z,68.83
2023-02-11T08:01:25.945Z,68.99
2023-02-11T08:03:52.995Z,69.17
2023-02-11T08:06:21.494Z,69.53
2023-02-11T08:08:48.471Z,68.50
2023-02-11T08:11:20.410Z,68.43
2023-02-11T08:13:46.786Z,69.29
2023-02-11T08:16:25.183Z,69.57
2023-02-11T08:18:53.062Z,69.23
2023-02-11T08:21:20.814Z,67.51
2023-02-11T08:23:47.619Z,66.85
2023-02-11T08:26:19.834Z,67.24
2023-02-11T08:28:47.693Z,65.98
2023-02-11T08:31:17.877Z,65.73
2023-02-11T08:33:45.207Z,66.05
2023-02-11T08:36:18.014Z,65.25
2023-02-11T08:38:44.783Z,64.75
2023-02-11T08:41:11.447Z,64.56
2023-02-11T08:43:41.774Z,65.00
2023-02-11T08:46:10.102Z,64.50
2023-02-11T08:48:36.464Z,65.16
2023-02-11T08:51:08.095Z,64.93
2023-02-11T08:53:35.473Z,64.95
2023-02-11T08:56:02.301Z,64.42
2023-02-11T08:58:29.665Z,64.44
2023-02-11T09:00:56.186Z,65.16
2023-02-11T09:03:22.679Z,64.72
2023-02-11T09:05:50.183Z,64.50
2023-02-11T09:08:17.057Z,64.32
2023-02-11T09:10:43.552Z,64.46
2023-02-11T09:13:10.163Z,63.88
2023-02-11T09:15:37.032Z,63.47
2023-02-11T09:18:04.395Z,63.50
2023-02-11T09:20:30.925Z,63.81
2023-02-11T09:22:58.953Z,62.79
2023-02-11T09:25:25.883Z,62.82
2023-02-11T09:27:53.672Z,63.27
2023-02-11T09:30:20.085Z,62.49
2023-02-11T09:32:46.462Z,62.32
2023-02-11T09:35:12.785Z,61.95
2023-02-11T09:37:39.145Z,61.79
2023-02-11T09:40:06.014Z,62.03
2023-02-11T09:43:01.763Z,62.36
2023-02-11T09:45:31.184Z,63.64
2023-02-11T09:48:27.149Z,63.70
2023-02-11T09:50:58.637Z,64.66
2023-02-11T09:53:26.271Z,64.33
2023-02-11T09:55:59.403Z,66.47
2023-02-11T09:58:30.345Z,67.26
2023-02-11T10:01:04.767Z,66.07
2023-02-11T10:04:03.076Z,65.19
2023-02-11T10:06:47.789Z,64.58
2023-02-11T10:09:30.318Z,63.70
2023-02-11T10:12:16.389Z,63.42
2023-02-11T10:14:55.193Z,63.25
2023-02-11T10:17:56.972Z,62.61
2023-02-11T10:20:32.444Z,62.05
2023-02-11T10:23:02.316Z,60.50
2023-02-11T10:25:36.307Z,60.38
2023-02-11T10:28:13.896Z,61.06
2023-02-11T10:30:59.377Z,59.98
2023-02-11T10:33:46.371Z,59.78
2023-02-11T10:36:14.393Z,59.07
2023-02-11T10:38:40.794Z,57.84
2023-02-11T10:41:13.583Z,56.97
2023-02-11T10:43:42.306Z,56.90
2023-02-11T10:46:18.183Z,57.24
2023-02-11T10:48:53.606Z,57.09
2023-02-11T10:51:34.001Z,56.78
2023-02-11T10:54:24.720Z,56.26
2023-02-11T10:56:58.670Z,55.79
2023-02-11T10:59:40.037Z,54.68
2023-02-11T11:02:24.525Z,54.35
2023-02-11T11:04:57.439Z,53.51
2023-02-11T11:07:29.672Z,54.23
2023-02-11T11:10:00.261Z,54.19
2023-02-11T11:12:45.205Z,54.07
2023-02-11T11:15:11.544Z,54.16
2023-02-11T11:17:38.316Z,54.34
2023-02-11T11:20:27.727Z,53.47
2023-02-11T11:23:10.723Z,52.96
2023-02-11T11:25:41.499Z,52.77
2023-02-11T11:28:20.425Z,52.07
2023-02-11T11:30:47.132Z,51.08
2023-02-11T11:33:24.663Z,50.30
2023-02-11T11:36:09.318Z,50.35
2023-02-11T11:38:42.745Z,49.73
2023-02-11T11:41:16.038Z,49.10
2023-02-11T11:44:03.765Z,48.55
2023-02-11T11:46:38.051Z,48.14
2023-02-11T11:49:14.636Z,47.36
2023-02-11T11:51:45.514Z,47.36
2023-02-11T11:54:15.883Z,47.60
2023-02-11T11:56:52.101Z,46.74
2023-02-11T11:59:18.776Z,46.17
2023-02-11T12:01:54.225Z,45.80
2023-02-11T12:04:35.973Z,45.55
2023-02-11T12:07:16.348Z,45.05
2023-02-11T12:10:16.800Z,45.48
2023-02-11T12:13:08.480Z,44.93
2023-02-11T12:15:53.170Z,44.64
2023-02-11T12:18:38.023Z,43.82
2023-02-11T12:21:24.048Z,43.46
2023-02-11T12:23:53.407Z,43.26
2023-02-11T12:26:23.601Z,42.80
2023-02-11T12:29:13.953Z,42.61
2023-02-11T12:31:52.674Z,42.81
2023-02-11T12:34:36.673Z,41.18
2023-02-11T12:37:32.406Z,41.19
2023-02-11T12:40:22.778Z,41.13
2023-02-11T12:43:16.808Z,40.90
2023-02-11T12:46:11.686Z,40.01
2023-02-11T12:49:16.116Z,39.28
2023-02-11T12:51:51.322Z,38.33
2023-02-11T12:54:24.344Z,37.86
2023-02-11T12:56:59.090Z,37.45
2023-02-11T12:59:33.348Z,37.91
2023-02-11T13:02:03.849Z,37.25
2023-02-11T13:04:44.597Z,35.70
2023-02-11T13:07:19.690Z,34.95
2023-02-11T13:09:56.196Z,34.72
2023-02-11T13:12:42.467Z,33.89
2023-02-11T13:15:14.589Z,33.75
2023-02-11T13:17:48.697Z,32.97
2023-02-11T13:20:28.278Z,31.13
2023-02-11T13:23:05.841Z,31.11
2023-02-11T13:25:41.592Z,31.50
2023-02-11T13:28:25.490Z,31.39
2023-02-11T13:31:02.043Z,31.13
2023-02-11T13:33:42.882Z,30.27
2023-02-11T13:36:09.157Z,30.54
2023-02-11T13:38:37.120Z,30.91
2023-02-11T13:41:17.150Z,30.40
2023-02-11T13:43:44.442Z,30.18
2023-02-11T13:46:13.648Z,29.66
2023-02-11T13:48:48.291Z,29.91
2023-02-11T13:51:32.317Z,29.59
2023-02-11T13:53:59.166Z,28.98
2023-02-11T13:56:31.639Z,28.44
2023-02-11T13:59:02.154Z,27.66
2023-02-11T14:01:42.196Z,27.14
2023-02-11T14:04:42.999Z,27.95
2023-02-11T14:07:50.089Z,28.31
2023-02-11T14:10:35.002Z,29.78
2023-02-11T14:13:23.657Z,29.43
2023-02-11T14:16:36.345Z,29.89
2023-02-11T14:19:03.667Z,30.86
2023-02-11T14:21:42.258Z,31.32
2023-02-11T14:24:12.829Z,31.63
2023-02-11T14:27:20.629Z,32.00
2023-02-11T14:29:53.459Z,31.78
2023-02-11T14:32:41.379Z,30.36
2023-02-11T14:35:28.876Z,31.24
2023-02-11T14:38:25.175Z,31.87
2023-02-11T14:41:09.370Z,31.67
2023-02-11T14:43:41.812Z,31.31
2023-02-11T14:46:08.735Z,31.79
2023-02-11T14:48:37.969Z,31.99
2023-02-11T14:51:09.932Z,32.58
2023-02-11T14:53:37.857Z,32.32
2023-02-11T14:56:18.252Z,33.54
2023-02-11T14:58:51.559Z,33.41
2023-02-11T15:01:35.213Z,33.26
2023-02-11T15:04:04.169Z,32.86
2023-02-11T15:06:31.840Z,33.03
2023-02-11T15:09:00.696Z,33.99
2023-02-11T15:11:30.734Z,33.56
2023-02-11T15:14:00.425Z,33.65
2023-02-11T15:16:28.899Z,33.67
2023-02-11T15:19:01.184Z,32.97
2023-02-11T15:21:30.842Z,33.51
2023-02-11T15:23:59.052Z,33.07
2023-02-11T15:26:25.685Z,32.75
2023-02-11T15:28:52.442Z,32.85
2023-02-11T15:31:23.305Z,32.89
2023-02-11T15:33:50.560Z,33.15
2023-02-11T15:36:19.810Z,32.77
2023-02-11T15:38:46.285Z,33.04
2023-02-11T15:41:36.436Z,32.85
2023-02-11T15:44:03.206Z,32.47
2023-02-11T15:46:38.081Z,32.88
2023-02-11T15:49:05.303Z,32.69
2023-02-11T15:51:35.393Z,32.96
2023-02-11T15:54:04.946Z,32.90
2023-02-11T15:56:44.499Z,32.49
2023-02-11T15:59:22.412Z,32.80
2023-02-11T16:01:49.379Z,33.16
2023-02-11T16:04:24.778Z,33.15
2023-02-11T16:06:52.139Z,33.80
2023-02-11T16:09:18.393Z,34.01
2023-02-11T16:11:47.438Z,34.17
2023-02-11T16:14:21.801Z,34.36
2023-02-11T16:16:51.006Z,34.70
2023-02-11T16:19:22.291Z,34.52
2023-02-11T16:21:50.850Z,34.72
2023-02-11T16:24:24.880Z,34.82
2023-02-11T16:26:54.709Z,35.08
2023-02-11T16:29:29.241Z,35.16
2023-02-11T16:32:08.339Z,35.47
2023-02-11T16:34:35.016Z,35.25
2023-02-11T16:37:04.293Z,35.78
2023-02-11T16:39:30.747Z,35.65
2023-02-11T16:41:57.161Z,36.19
2023-02-11T16:44:23.973Z,36.13
2023-02-11T16:46:51.970Z,36.33
2023-02-11T16:49:23.221Z,36.79
2023-02-11T16:51:51.543Z,37.17
2023-02-11T16:54:19.344Z,37.49
2023-02-11T16:56:45.935Z,37.88
2023-02-11T16:59:12.394Z,37.88
2023-02-11T17:01:41.059Z,38.24
2023-02-11T17:04:15.147Z,38.46
2023-02-11T17:06:41.609Z,38.50
2023-02-11T17:09:15.305Z,38.80
2023-02-11T17:11:41.625Z,38.82
2023-02-11T17:14:07.950Z,38.61
2023-02-11T17:16:34.517Z,38.59
2023-02-11T17:19:00.919Z,38.73
2023-02-11T17:21:29.901Z,39.22
2023-02-11T17:23:56.433Z,39.38
2023-02-11T17:26:22.744Z,39.38
2023-02-11T17:28:49.064Z,40.22
2023-02-11T17:31:15.900Z,41.19
2023-02-11T17:33:42.565Z,40.70
2023-02-11T17:36:09.780Z,40.84
2023-02-11T17:38:37.345Z,40.60
2023-02-11T17:41:05.044Z,41.14
2023-02-11T17:43:31.766Z,41.47
2023-02-11T17:45:58.295Z,42.48
2023-02-11T17:48:24.953Z,43.07
2023-02-11T17:50:51.328Z,43.18
2023-02-11T17:53:17.649Z,42.92
2023-02-11T17:55:43.973Z,43.29
2023-02-11T17:58:10.331Z,43.63
2023-02-11T18:00:36.889Z,43.79
2023-02-11T18:03:03.654Z,44.01
2023-02-11T18:05:34.830Z,44.19
2023-02-11T18:08:01.182Z,44.23
2023-02-11T18:10:27.692Z,44.59
2023-02-11T18:12:54.089Z,45.50
2023-02-11T18:15:20.429Z,44.92
2023-02-11T18:17:46.771Z,45.17
2023-02-11T18:20:13.404Z,44.95
2023-02-11T18:22:40.885Z,45.10
2023-02-11T18:25:08.589Z,45.14
2023-02-11T18:27:34.953Z,45.17
2023-02-11T18:30:01.382Z,45.28
2023-02-11T18:32:27.772Z,45.74
2023-02-11T18:34:54.204Z,45.59
2023-02-11T18:37:20.572Z,45.49
2023-02-11T18:39:46.895Z,46.15
2023-02-11T18:42:13.467Z,45.95
2023-02-11T18:44:39.847Z,45.84
2023-02-11T18:47:06.450Z,46.04
2023-02-11T18:49:35.495Z,46.56
2023-02-11T18:52:02.330Z,46.75
2023-02-11T18:54:28.656Z,46.93
2023-02-11T18:56:54.970Z,47.07
2023-02-11T18:59:21.281Z,46.91
2023-02-11T19:01:47.655Z,47.13
2023-02-11T19:04:19.579Z,47.33
2023-02-11T19:06:49.351Z,47.18
2023-02-11T19:09:18.618Z,47.05
2023-02-11T19:11:52.104Z,47.31
2023-02-11T19:14:27.001Z,47.19
2023-02-11T19:16:56.282Z,47.09
2023-02-11T19:19:28.163Z,47.64
2023-02-11T19:21:55.346Z,47.44
2023-02-11T19:24:23.439Z,48.16
2023-02-11T19:26:52.417Z,48.64
2023-02-11T19:29:19.162Z,48.95
2023-02-11T19:31:45.796Z,48.86
2023-02-11T19:34:14.054Z,48.73
2023-02-11T19:36:40.733Z,49.09
2023-02-11T19:39:07.409Z,49.12
2023-02-11T19:41:34.662Z,49.00
2023-02-11T19:44:02.709Z,48.78
2023-02-11T19:46:31.895Z,49.38
2023-02-11T19:49:00.009Z,49.21
2023-02-11T19:51:26.681Z,50.07
2023-02-11T19:53:53.765Z,49.68
2023-02-11T19:56:20.999Z,50.00
2023-02-11T19:58:47.809Z,49.59
2023-02-11T20:01:17.279Z,49.72
2023-02-11T20:03:43.780Z,50.19
2023-02-11T20:06:14.463Z,50.21
2023-02-11T20:08:41.356Z,49.73
2023-02-11T20:11:12.289Z,49.62
2023-02-11T20:13:39.259Z,49.94
2023-02-11T20:16:09.609Z,50.34
2023-02-11T20:18:36.865Z,50.65
2023-02-11T20:21:10.057Z,50.96
2023-02-11T20:23:38.483Z,50.85
2023-02-11T20:26:13.575Z,50.77
2023-02-11T20:28:40.052Z,50.96
2023-02-11T20:31:06.979Z,51.15
2023-02-11T20:33:34.640Z,51.21
2023-02-11T20:36:09.989Z,50.90
2023-02-11T20:38:37.492Z,50.81
2023-02-11T20:41:13.744Z,51.25
2023-02-11T20:43:46.112Z,51.72
2023-02-11T20:46:14.944Z,51.66
2023-02-11T20:48:41.590Z,51.95
2023-02-11T20:51:14.870Z,51.80
2023-02-11T20:53:43.961Z,52.01
2023-02-11T20:56:11.902Z,52.32
2023-02-11T20:58:39.186Z,52.33
2023-02-11T21:01:22.262Z,52.75
2023-02-11T21:03:54.537Z,52.46
2023-02-11T21:06:22.204Z,52.87
2023-02-11T21:08:48.642Z,52.24
2023-02-11T21:11:15.209Z,52.54
2023-02-11T21:13:43.149Z,52.09
2023-02-11T21:16:14.497Z,52.43
2023-02-11T21:18:41.333Z,52.18
2023-02-11T21:21:07.934Z,52.63
2023-02-11T21:23:35.731Z,52.89
2023-02-11T21:26:02.188Z,52.93
2023-02-11T21:28:28.652Z,53.13
2023-02-11T21:30:56.654Z,53.16
2023-02-11T21:33:24.734Z,53.25
2023-02-11T21:35:58.057Z,53.71
2023-02-11T21:38:25.222Z,53.91
2023-02-11T21:40:52.205Z,53.75
2023-02-11T21:43:18.976Z,53.74
2023-02-11T21:45:46.965Z,53.33
2023-02-11T21:48:13.868Z,54.16
2023-02-11T21:50:42.134Z,53.98
2023-02-11T21:53:09.386Z,54.11
2023-02-11T21:55:37.021Z,54.43
2023-02-11T21:58:04.139Z,54.66
2023-02-11T22:00:31.134Z,54.80
2023-02-11T22:02:57.485Z,55.34
2023-02-11T22:05:24.182Z,55.19
2023-02-11T22:07:51.132Z,55.35
2023-02-11T22:10:18.995Z,55.79
2023-02-11T22:12:45.931Z,55.66
2023-02-11T22:15:12.936Z,55.58
2023-02-11T22:17:39.405Z,55.75
2023-02-11T22:20:06.826Z,55.96
2023-02-11T22:22:33.303Z,56.50
2023-02-11T22:25:03.189Z,56.64
2023-02-11T22:27:29.558Z,56.71
2023-02-11T22:29:56.118Z,56.54
2023-02-11T22:32:22.501Z,56.99
2023-02-11T22:34:50.873Z,56.80
2023-02-11T22:37:18.507Z,57.08
2023-02-11T22:39:44.845Z,57.48
2023-02-11T22:42:11.288Z,57.25
2023-02-11T22:44:37.922Z,57.25
2023-02-11T22:47:04.319Z,56.89
2023-02-11T22:49:33.022Z,57.18
2023-02-11T22:51:59.525Z,56.80
2023-02-11T22:54:25.874Z,57.42
2023-02-11T22:56:53.112Z,56.94
2023-02-11T22:59:20.453Z,57.16
2023-02-11T23:01:47.015Z,57.41
2023-02-11T23:04:15.069Z,57.01
2023-02-11T23:06:41.484Z,57.01
2023-02-11T23:09:10.024Z,57.28
2023-02-11T23:11:36.472Z,57.94
2023-02-11T23:14:03.296Z,57.95
2023-02-11T23:16:32.302Z,58.00
2023-02-11T23:19:00.243Z,57.78
2023-02-11T23:21:29.369Z,57.82
2023-02-11T23:24:01.278Z,57.89
2023-02-11T23:26:28.616Z,58.34
2023-02-11T23:28:55.786Z,57.93
2023-02-11T23:31:27.243Z,58.09
2023-02-11T23:33:54.270Z,57.86
2023-02-11T23:36:21.422Z,58.46
2023-02-11T23:38:48.863Z,58.67
2023-02-11T23:41:15.977Z,58.38
2023-02-11T23:43:43.080Z,58.66
2023-02-11T23:46:10.371Z,58.20
2023-02-11T23:48:37.507Z,58.37
2023-02-11T23:51:04.201Z,58.39
2023-02-11T23:53:30.586Z,58.41
2023-02-11T23:55:57.186Z,58.34
2023-02-11T23:58:23.633Z,58.68
